createdAt,value
2023-04-24T00:02:12.203Z,11.55
2023-04-24T00:04:47.306Z,11.58
2023-04-24T00:07:21.148Z,11.62
2023-04-24T00:09:52.872Z,11.64
2023-04-24T00:12:25.319Z,11.69
2023-04-24T00:14:56.982Z,11.68
2023-04-24T00:17:31.643Z,11.69
2023-04-24T00:20:07.868Z,11.72
2023-04-24T00:22:39.662Z,11.76
2023-04-24T00:25:11.474Z,11.79
2023-04-24T00:27:43.197Z,11.79
2023-04-24T00:30:15.424Z,11.80
2023-04-24T00:32:47.594Z,11.85
2023-04-24T00:35:20.988Z,11.88
2023-04-24T00:37:52.860Z,11.90
2023-04-24T00:40:24.575Z,11.89
2023-04-24T00:42:56.782Z,11.89
2023-04-24T00:45:28.613Z,11.92
2023-04-24T00:48:01.466Z,11.95
2023-04-24T00:50:33.683Z,12.00
2023-04-24T00:53:06.110Z,12.04
2023-04-24T00:55:38.410Z,12.07
2023-04-24T00:58:10.418Z,12.10
2023-04-24T01:00:42.249Z,12.07
2023-04-24T01:03:15.348Z,12.07
2023-04-24T01:05:47.512Z,12.08
2023-04-24T01:08:24.182Z,12.09
2023-04-24T01:10:58.995Z,12.10
2023-04-24T01:13:30.723Z,12.12
2023-04-24T01:16:02.575Z,12.13
2023-04-24T01:18:34.752Z,12.17
2023-04-24T01:21:10.008Z,12.18
2023-04-24T01:23:41.765Z,12.20
2023-04-24T01:26:15.782Z,12.21
2023-04-24T01:28:48.712Z,12.22
2023-04-24T01:31:21.547Z,12.21
2023-04-24T01:33:57.181Z,12.23
2023-04-24T01:36:30.341Z,12.25
2023-04-24T01:39:02.177Z,12.25
2023-04-24T01:41:34.494Z,12.25
2023-04-24T01:44:06.267Z,12.29
2023-04-24T01:46:38.839Z,12.29
2023-04-24T01:49:10.824Z,12.29
2023-04-24T01:51:43.881Z,12.32
2023-04-24T01:54:15.580Z,12.34
2023-04-24T01:56:47.703Z,12.37
2023-04-24T01:59:22.688Z,12.40
2023-04-24T02:01:54.439Z,12.45
2023-04-24T02:04:26.287Z,12.44
2023-04-24T02:06:59.241Z,12.44
2023-04-24T02:09:31.015Z,12.47
2023-04-24T02:12:02.706Z,12.48
2023-04-24T02:14:34.573Z,12.48
2023-04-24T02:17:06.324Z,12.52
2023-04-24T02:19:38.066Z,12.54
2023-04-24T02:22:09.755Z,12.54
2023-04-24T02:24:41.655Z,12.56
2023-04-24T02:27:14.640Z,12.55
2023-04-24T02:29:46.614Z,12.57
2023-04-24T02:32:18.440Z,12.60
2023-04-24T02:34:50.175Z,12.60
2023-04-24T02:37:21.802Z,12.62
2023-04-24T02:39:53.600Z,12.63
2023-04-24T02:42:25.341Z,12.63
2023-04-24T02:44:57.018Z,12.57
2023-04-24T02:47:28.743Z,12.54
2023-04-24T02:50:00.428Z,12.53
2023-04-24T02:52:32.185Z,12.52
2023-04-24T02:55:04.294Z,12.55
2023-04-24T02:57:36.272Z,12.57
2023-04-24T03:00:08.545Z,12.59
2023-04-24T03:02:40.420Z,12.60
2023-04-24T03:05:13.141Z,12.61
2023-04-24T03:07:44.923Z,12.61
2023-04-24T03:10:16.685Z,12.62
2023-04-24T03:12:48.392Z,12.64
2023-04-24T03:15:20.205Z,12.65
2023-04-24T03:17:52.228Z,12.64
2023-04-24T03:20:25.178Z,12.64
2023-04-24T03:22:58.204Z,12.64
2023-04-24T03:25:33.220Z,12.64
2023-04-24T03:28:05.049Z,12.62
2023-04-24T03:30:55.470Z,12.57
2023-04-24T03:33:28.889Z,12.55
2023-04-24T03:36:06.416Z,12.55
2023-04-24T03:38:44.913Z,12.56
2023-04-24T03:41:32.249Z,12.56
2023-04-24T03:44:10.139Z,12.55
2023-04-24T03:46:42.391Z,12.55
2023-04-24T03:49:14.799Z,12.55
2023-04-24T03:51:49.145Z,12.55
2023-04-24T03:54:28.109Z,12.54
2023-04-24T03:57:00.126Z,12.55
2023-04-24T03:59:33.422Z,12.53
2023-04-24T04:02:19.508Z,12.53
2023-04-24T04:04:52.106Z,12.51
2023-04-24T04:07:23.904Z,12.51
2023-04-24T04:09:55.992Z,12.50
2023-04-24T04:12:29.015Z,12.49
2023-04-24T04:15:01.007Z,12.49
2023-04-24T04:17:33.014Z,12.50
2023-04-24T04:20:11.047Z,12.49
2023-04-24T04:22:44.798Z,12.51
2023-04-24T04:25:22.041Z,12.51
2023-04-24T04:27:54.791Z,12.54
2023-04-24T04:30:26.964Z,12.55
2023-04-24T04:33:09.301Z,12.54
2023-04-24T04:35:42.228Z,12.55
2023-04-24T04:38:16.090Z,12.57
2023-04-24T04:40:52.303Z,12.55
2023-04-24T04:43:26.351Z,12.56
2023-04-24T04:46:01.818Z,12.56
2023-04-24T04:48:36.446Z,12.57
2023-04-24T04:51:10.877Z,12.60
2023-04-24T04:53:43.203Z,12.63
2023-04-24T04:56:15.032Z,12.66
2023-04-24T04:58:50.250Z,12.69
2023-04-24T05:01:24.213Z,12.70
2023-04-24T05:03:56.514Z,12.73
2023-04-24T05:06:28.639Z,12.75
2023-04-24T05:09:00.941Z,12.77
2023-04-24T05:11:49.056Z,12.79
2023-04-24T05:14:23.411Z,12.84
2023-04-24T05:16:55.613Z,12.80
2023-04-24T05:19:30.072Z,12.81
2023-04-24T05:22:04.197Z,12.81
2023-04-24T05:24:37.979Z,12.79
2023-04-24T05:27:36.203Z,12.81
2023-04-24T05:30:13.326Z,12.82
2023-04-24T05:32:45.791Z,12.90
2023-04-24T05:35:19.769Z,12.91
2023-04-24T05:37:51.645Z,12.95
2023-04-24T05:40:23.936Z,13.02
2023-04-24T05:42:55.648Z,13.03
2023-04-24T05:45:32.334Z,13.02
2023-04-24T05:48:04.575Z,12.99
2023-04-24T05:50:37.873Z,13.01
2023-04-24T05:53:11.657Z,13.03
2023-04-24T05:55:43.716Z,13.00
2023-04-24T05:58:15.662Z,13.02
2023-04-24T06:00:48.081Z,13.03
2023-04-24T06:03:20.068Z,13.00
2023-04-24T06:05:53.968Z,13.01
2023-04-24T06:08:27.462Z,12.94
2023-04-24T06:10:59.374Z,12.98
2023-04-24T06:13:31.380Z,13.00
2023-04-24T06:16:26.165Z,13.06
2023-04-24T06:19:05.157Z,13.11
2023-04-24T06:21:36.996Z,13.13
2023-04-24T06:24:08.793Z,13.13
2023-04-24T06:26:42.656Z,13.07
2023-04-24T06:29:16.525Z,13.16
2023-04-24T06:31:48.419Z,13.20
2023-04-24T06:34:20.219Z,13.24
2023-04-24T06:36:52.164Z,13.21
2023-04-24T06:39:24.011Z,13.19
2023-04-24T06:41:56.128Z,13.21
2023-04-24T06:44:29.277Z,13.15
2023-04-24T06:47:01.017Z,13.11
2023-04-24T06:49:32.718Z,13.11
2023-04-24T06:52:05.009Z,13.13
2023-04-24T06:54:36.776Z,13.19
2023-04-24T06:57:09.426Z,13.22
2023-04-24T06:59:43.478Z,13.24
2023-04-24T07:02:15.524Z,13.27
2023-04-24T07:04:48.488Z,13.34
2023-04-24T07:07:20.288Z,13.39
2023-04-24T07:09:51.992Z,13.43
2023-04-24T07:12:23.797Z,13.52
2023-04-24T07:14:55.605Z,13.45
2023-04-24T07:17:27.475Z,13.43
2023-04-24T07:19:59.286Z,13.54
2023-04-24T07:22:30.987Z,13.60
2023-04-24T07:25:03.525Z,13.65
2023-04-24T07:27:38.823Z,13.70
2023-04-24T07:30:11.106Z,13.71
2023-04-24T07:32:42.818Z,13.72
2023-04-24T07:35:17.441Z,13.65
2023-04-24T07:37:49.454Z,13.55
2023-04-24T07:40:22.070Z,13.53
2023-04-24T07:42:53.745Z,13.48
2023-04-24T07:45:27.213Z,13.45
2023-04-24T07:47:59.035Z,13.44
2023-04-24T07:50:30.804Z,13.46
2023-04-24T07:53:02.714Z,13.43
2023-04-24T07:55:34.549Z,13.34
2023-04-24T07:58:06.322Z,13.32
2023-04-24T08:00:38.090Z,13.26
2023-04-24T08:03:09.910Z,13.21
2023-04-24T08:05:42.924Z,13.22
2023-04-24T08:08:14.795Z,13.26
2023-04-24T08:10:46.572Z,13.25
2023-04-24T08:13:18.376Z,13.24
2023-04-24T08:15:50.388Z,13.29
2023-04-24T08:18:22.275Z,13.32
2023-04-24T08:20:54.109Z,13.30
2023-04-24T08:23:25.980Z,13.34
2023-04-24T08:25:58.762Z,13.34
2023-04-24T08:28:30.720Z,13.34
2023-04-24T08:31:02.428Z,13.36
2023-04-24T08:33:36.094Z,13.44
2023-04-24T08:36:08.364Z,13.48
2023-04-24T08:38:42.670Z,13.53
2023-04-24T08:41:17.066Z,13.64
2023-04-24T08:43:49.926Z,13.64
2023-04-24T08:46:23.587Z,13.72
2023-04-24T08:48:55.607Z,13.66
2023-04-24T08:51:27.646Z,13.64
2023-04-24T08:53:59.475Z,13.64
2023-04-24T08:56:34.382Z,13.47
2023-04-24T08:59:07.760Z,13.50
2023-04-24T09:01:41.101Z,13.56
2023-04-24T09:04:16.321Z,13.49
2023-04-24T09:06:50.113Z,13.56
2023-04-24T09:09:23.584Z,13.57
2023-04-24T09:11:56.633Z,13.65
2023-04-24T09:14:29.161Z,13.76
2023-04-24T09:17:00.908Z,13.89
2023-04-24T09:19:32.839Z,13.92
2023-04-24T09:22:08.726Z,14.04
2023-04-24T09:24:40.680Z,14.06
2023-04-24T09:27:13.826Z,14.04
2023-04-24T09:29:56.308Z,14.11
2023-04-24T09:32:32.807Z,14.15
2023-04-24T09:35:16.397Z,14.24
2023-04-24T09:37:49.901Z,14.43
2023-04-24T09:40:24.073Z,14.54
2023-04-24T09:43:02.149Z,14.64
2023-04-24T09:45:38.252Z,14.79
2023-04-24T09:48:11.159Z,15.03
2023-04-24T09:50:48.765Z,15.36
2023-04-24T09:53:25.743Z,15.52
2023-04-24T09:56:04.141Z,15.52
2023-04-24T09:58:37.463Z,15.49
2023-04-24T10:01:09.264Z,15.67
2023-04-24T10:03:45.713Z,15.97
2023-04-24T10:06:17.568Z,16.17
2023-04-24T10:08:51.934Z,16.25
2023-04-24T10:11:24.317Z,16.53
2023-04-24T10:13:56.865Z,16.69
2023-04-24T10:16:29.799Z,16.69
2023-04-24T10:19:04.235Z,16.74
2023-04-24T10:21:38.936Z,17.04
2023-04-24T10:24:18.189Z,17.12
2023-04-24T10:26:50.770Z,17.43
2023-04-24T10:29:23.386Z,17.51
2023-04-24T10:31:55.333Z,17.78
2023-04-24T10:34:27.511Z,18.17
2023-04-24T10:36:59.543Z,18.56
2023-04-24T10:39:34.432Z,18.87
2023-04-24T10:42:18.837Z,18.81
2023-04-24T10:44:51.310Z,18.64
2023-04-24T10:47:23.067Z,18.59
2023-04-24T10:49:54.955Z,18.64
2023-04-24T10:52:45.423Z,18.62
2023-04-24T10:55:17.236Z,18.33
2023-04-24T10:58:04.647Z,18.42
2023-04-24T11:00:41.595Z,18.48
2023-04-24T11:03:31.225Z,18.50
2023-04-24T11:06:08.009Z,18.51
2023-04-24T11:08:40.730Z,18.56
2023-04-24T11:11:17.907Z,18.73
2023-04-24T11:13:58.224Z,18.98
2023-04-24T11:16:35.667Z,19.03
2023-04-24T11:19:12.110Z,19.03
2023-04-24T11:21:49.975Z,19.27
2023-04-24T11:24:38.179Z,19.84
2023-04-24T11:27:15.921Z,20.31
2023-04-24T11:29:47.574Z,20.65
2023-04-24T11:32:40.976Z,20.81
2023-04-24T11:35:22.318Z,20.80
2023-04-24T11:40:30.068Z,20.69
2023-04-24T11:43:02.092Z,20.42
2023-04-24T11:45:33.887Z,20.22
2023-04-24T11:48:05.607Z,20.16
2023-04-24T11:50:37.531Z,19.88
2023-04-24T11:53:09.630Z,19.76
2023-04-24T11:55:41.606Z,19.80
2023-04-24T11:58:13.504Z,19.95
2023-04-24T12:00:46.734Z,19.76
2023-04-24T12:03:18.986Z,19.30
2023-04-24T12:05:51.498Z,18.87
2023-04-24T12:08:29.934Z,18.76
2023-04-24T12:11:03.325Z,18.69
2023-04-24T12:13:36.305Z,18.48
2023-04-24T12:16:08.512Z,18.05
2023-04-24T12:18:45.264Z,17.59
2023-04-24T12:21:23.083Z,17.05
2023-04-24T12:23:57.913Z,16.67
2023-04-24T12:26:30.183Z,16.22
2023-04-24T12:29:04.614Z,15.83
2023-04-24T12:31:36.355Z,15.74
2023-04-24T12:34:21.848Z,15.53
2023-04-24T12:36:54.320Z,15.33
2023-04-24T12:39:27.895Z,15.27
2023-04-24T12:42:00.966Z,15.15
2023-04-24T12:44:36.468Z,15.15
2023-04-24T12:47:08.590Z,15.16
2023-04-24T12:49:40.344Z,15.10
2023-04-24T12:52:12.098Z,15.07
2023-04-24T12:54:43.824Z,15.13
2023-04-24T12:57:16.261Z,15.32
2023-04-24T12:59:48.055Z,15.44
2023-04-24T13:02:19.984Z,15.39
2023-04-24T13:04:52.757Z,15.33
2023-04-24T13:07:24.741Z,15.41
2023-04-24T13:09:58.042Z,15.46
2023-04-24T13:12:29.842Z,15.44
2023-04-24T13:15:01.535Z,15.51
2023-04-24T13:17:34.138Z,15.59
2023-04-24T13:20:06.493Z,15.61
2023-04-24T13:22:38.508Z,15.77
2023-04-24T13:25:11.169Z,15.92
2023-04-24T13:27:43.119Z,16.05
2023-04-24T13:30:15.167Z,16.30
2023-04-24T13:32:47.073Z,16.35
2023-04-24T13:35:18.862Z,16.50
2023-04-24T13:37:50.681Z,16.65
2023-04-24T13:40:22.482Z,16.65
2023-04-24T13:42:54.257Z,16.45
2023-04-24T13:45:26.081Z,16.29
2023-04-24T13:47:58.397Z,16.34
2023-04-24T13:50:30.202Z,16.51
2023-04-24T13:53:03.677Z,16.73
2023-04-24T13:55:35.539Z,16.90
2023-04-24T13:58:07.671Z,16.96
2023-04-24T14:00:42.570Z,16.94
2023-04-24T14:03:14.720Z,16.92
2023-04-24T14:05:46.554Z,16.82
2023-04-24T14:08:18.323Z,16.67
2023-04-24T14:10:51.768Z,16.49
2023-04-24T14:13:23.635Z,16.42
2023-04-24T14:15:55.758Z,16.29
2023-04-24T14:18:27.951Z,16.19
2023-04-24T14:21:00.317Z,16.11
2023-04-24T14:23:32.222Z,16.15
2023-04-24T14:26:04.014Z,16.13
2023-04-24T14:28:35.821Z,16.12
2023-04-24T14:31:07.676Z,16.17
2023-04-24T14:33:39.425Z,16.20
2023-04-24T14:36:11.373Z,16.25
2023-04-24T14:38:43.526Z,16.31
2023-04-24T14:41:18.144Z,16.39
2023-04-24T14:43:49.749Z,16.48
2023-04-24T14:46:21.618Z,16.57
2023-04-24T14:48:53.376Z,16.70
2023-04-24T14:51:25.309Z,16.88
2023-04-24T14:53:59.582Z,16.94
2023-04-24T14:56:31.378Z,16.95
2023-04-24T14:59:03.711Z,16.96
2023-04-24T15:01:35.741Z,17.05
2023-04-24T15:04:07.639Z,17.09
2023-04-24T15:06:39.611Z,17.12
2023-04-24T15:09:11.442Z,17.10
2023-04-24T15:11:43.169Z,17.07
2023-04-24T15:14:16.053Z,17.03
2023-04-24T15:16:47.905Z,16.94
2023-04-24T15:19:19.720Z,16.88
2023-04-24T15:21:51.434Z,16.87
2023-04-24T15:24:23.225Z,16.87
2023-04-24T15:26:57.409Z,16.97
2023-04-24T15:29:30.395Z,17.01
2023-04-24T15:32:02.711Z,16.97
2023-04-24T15:34:35.252Z,16.93
2023-04-24T15:37:07.191Z,16.97
2023-04-24T15:39:39.010Z,16.97
2023-04-24T15:42:10.760Z,16.93
2023-04-24T15:44:46.062Z,16.82
2023-04-24T15:47:17.820Z,16.77
2023-04-24T15:49:49.585Z,16.82
2023-04-24T15:52:21.530Z,16.75
2023-04-24T15:54:53.235Z,16.79
2023-04-24T15:57:25.117Z,16.76
2023-04-24T15:59:56.861Z,16.77
2023-04-24T16:02:30.651Z,16.74
2023-04-24T16:05:02.595Z,16.55
2023-04-24T16:07:34.738Z,16.43
2023-04-24T16:10:06.981Z,16.29
2023-04-24T16:12:38.936Z,16.09
2023-04-24T16:15:31.241Z,15.98
2023-04-24T16:18:05.738Z,15.91
2023-04-24T16:20:40.854Z,15.85
2023-04-24T16:23:12.924Z,15.80
2023-04-24T16:25:44.725Z,15.74
2023-04-24T16:28:18.502Z,15.73
2023-04-24T16:30:50.259Z,15.68
2023-04-24T16:33:22.029Z,15.59
2023-04-24T16:35:53.914Z,15.58
2023-04-24T16:38:26.565Z,15.53
2023-04-24T16:40:58.376Z,15.52
2023-04-24T16:43:30.138Z,15.49
2023-04-24T16:46:02.744Z,15.45
2023-04-24T16:48:35.070Z,15.41
2023-04-24T16:51:06.888Z,15.41
2023-04-24T16:53:38.540Z,15.36
2023-04-24T16:56:10.300Z,15.34
2023-04-24T16:58:42.063Z,15.24
2023-04-24T17:01:13.969Z,15.16
2023-04-24T17:03:46.709Z,15.06
2023-04-24T17:06:18.728Z,15.02
2023-04-24T17:08:50.775Z,14.94
2023-04-24T17:11:23.117Z,14.90
2023-04-24T17:13:54.916Z,14.81
2023-04-24T17:16:26.830Z,14.78
2023-04-24T17:18:58.870Z,14.69
2023-04-24T17:21:31.677Z,14.65
2023-04-24T17:24:03.647Z,14.62
2023-04-24T17:26:35.695Z,14.58
2023-04-24T17:29:07.459Z,14.54
2023-04-24T17:31:39.183Z,14.56
2023-04-24T17:34:11.098Z,14.52
2023-04-24T17:36:42.839Z,14.49
2023-04-24T17:39:14.587Z,14.46
2023-04-24T17:41:46.409Z,14.40
2023-04-24T17:44:18.083Z,14.30
2023-04-24T17:46:49.820Z,14.22
2023-04-24T17:49:21.481Z,14.18
2023-04-24T17:51:53.348Z,14.18
2023-04-24T17:54:25.422Z,14.14
2023-04-24T17:56:57.258Z,14.18
2023-04-24T17:59:29.051Z,14.08
2023-04-24T18:02:03.016Z,14.06
2023-04-24T18:04:35.647Z,14.01
2023-04-24T18:07:08.519Z,13.96
2023-04-24T18:09:41.351Z,13.92
2023-04-24T18:12:13.076Z,13.88
2023-04-24T18:14:44.837Z,13.84
2023-04-24T18:17:16.549Z,13.80
2023-04-24T18:19:48.226Z,13.78
2023-04-24T18:22:20.035Z,13.76
2023-04-24T18:24:51.804Z,13.70
2023-04-24T18:27:25.301Z,13.70
2023-04-24T18:29:57.774Z,13.71
2023-04-24T18:32:29.679Z,13.65
2023-04-24T18:35:01.633Z,13.62
2023-04-24T18:37:33.680Z,13.54
2023-04-24T18:40:06.084Z,13.56
2023-04-24T18:42:37.955Z,13.50
2023-04-24T18:45:11.848Z,13.43
2023-04-24T18:47:45.791Z,13.42
2023-04-24T18:50:20.062Z,13.37
2023-04-24T18:52:51.785Z,13.37
2023-04-24T18:55:23.502Z,13.36
2023-04-24T18:57:55.212Z,13.32
2023-04-24T19:00:30.565Z,13.25
2023-04-24T19:03:03.131Z,13.19
2023-04-24T19:05:35.112Z,13.19
2023-04-24T19:08:07.091Z,13.14
2023-04-24T19:10:38.851Z,13.14
2023-04-24T19:13:10.683Z,13.13
2023-04-24T19:15:42.876Z,13.13
2023-04-24T19:18:14.612Z,13.06
2023-04-24T19:20:46.629Z,13.02
2023-04-24T19:23:18.490Z,13.01
2023-04-24T19:25:50.355Z,13.01
2023-04-24T19:28:22.300Z,13.03
2023-04-24T19:30:58.413Z,12.99
2023-04-24T19:33:30.480Z,12.99
2023-04-24T19:36:02.594Z,12.90
2023-04-24T19:38:34.613Z,12.87
2023-04-24T19:41:06.495Z,12.85
2023-04-24T19:43:38.955Z,12.81
2023-04-24T19:46:10.964Z,12.75
2023-04-24T19:48:42.852Z,12.67
2023-04-24T19:51:14.641Z,12.70
2023-04-24T19:53:46.396Z,12.66
2023-04-24T19:56:18.093Z,12.53
2023-04-24T19:58:50.189Z,12.53
2023-04-24T20:01:22.103Z,12.51
2023-04-24T20:03:54.062Z,12.52
2023-04-24T20:06:25.977Z,12.50
2023-04-24T20:08:57.802Z,12.49
2023-04-24T20:11:29.464Z,12.43
2023-04-24T20:14:04.022Z,12.41
2023-04-24T20:16:35.760Z,12.38
2023-04-24T20:19:08.145Z,12.36
2023-04-24T20:21:39.977Z,12.38
2023-04-24T20:24:11.844Z,12.26
2023-04-24T20:26:43.608Z,12.20
2023-04-24T20:29:15.493Z,12.16
2023-04-24T20:31:47.290Z,12.17
2023-04-24T20:34:19.385Z,12.14
2023-04-24T20:36:51.140Z,12.16
2023-04-24T20:39:23.188Z,12.11
2023-04-24T20:41:54.869Z,12.08
2023-04-24T20:44:26.687Z,12.04
2023-04-24T20:46:58.430Z,11.99
2023-04-24T20:49:30.213Z,11.96
2023-04-24T20:52:02.013Z,11.92
2023-04-24T20:54:34.089Z,11.92
2023-04-24T20:57:05.946Z,11.86
2023-04-24T20:59:38.798Z,11.86
2023-04-24T21:02:10.586Z,11.89
2023-04-24T21:04:42.352Z,11.86
2023-04-24T21:07:15.316Z,11.82
2023-04-24T21:09:47.153Z,11.84
2023-04-24T21:12:18.884Z,11.87
2023-04-24T21:14:51.816Z,11.77
2023-04-24T21:17:23.648Z,11.77
2023-04-24T21:19:56.604Z,11.75
2023-04-24T21:22:28.329Z,11.77
2023-04-24T21:25:00.031Z,11.75
2023-04-24T21:27:31.833Z,11.73
2023-04-24T21:30:06.004Z,11.73
2023-04-24T21:32:39.222Z,11.74
2023-04-24T21:35:11.429Z,11.74
2023-04-24T21:37:43.238Z,11.75
2023-04-24T21:40:16.024Z,11.68
2023-04-24T21:42:48.008Z,11.62
2023-04-24T21:45:20.222Z,11.57
2023-04-24T21:47:52.135Z,11.53
2023-04-24T21:50:23.910Z,11.49
2023-04-24T21:52:55.785Z,11.48
2023-04-24T21:55:27.704Z,11.42
2023-04-24T21:57:59.611Z,11.37
2023-04-24T22:00:31.508Z,11.35
2023-04-24T22:03:04.390Z,11.33
2023-04-24T22:05:36.970Z,11.31
2023-04-24T22:08:09.737Z,11.28
2023-04-24T22:10:41.460Z,11.22
2023-04-24T22:13:13.203Z,11.20
2023-04-24T22:15:45.193Z,11.15
2023-04-24T22:18:18.895Z,11.09
2023-04-24T22:20:50.733Z,11.08
2023-04-24T22:23:22.472Z,11.02
2023-04-24T22:25:54.257Z,10.98
2023-04-24T22:28:26.385Z,11.01
2023-04-24T22:30:58.426Z,11.01
2023-04-24T22:33:33.067Z,10.95
2023-04-24T22:36:04.991Z,10.90
2023-04-24T22:38:36.779Z,10.89
2023-04-24T22:41:08.593Z,10.93
2023-04-24T22:43:40.329Z,10.94
2023-04-24T22:46:12.015Z,10.97
2023-04-24T22:48:44.308Z,10.92
2023-04-24T22:51:18.199Z,10.90
2023-04-24T22:53:50.229Z,10.88
2023-04-24T22:56:22.197Z,10.85
2023-04-24T22:58:53.895Z,10.80
2023-04-24T23:01:29.161Z,10.75
2023-04-24T23:04:01.400Z,10.68
2023-04-24T23:06:33.670Z,10.65
2023-04-24T23:09:05.346Z,10.59
2023-04-24T23:11:37.253Z,10.53
2023-04-24T23:14:09.129Z,10.43
2023-04-24T23:16:42.773Z,10.37
2023-04-24T23:19:17.368Z,10.34
2023-04-24T23:21:50.132Z,10.33
2023-04-24T23:24:22.211Z,10.30
2023-04-24T23:26:53.940Z,10.29
2023-04-24T23:29:26.283Z,10.24
2023-04-24T23:31:58.420Z,10.22
2023-04-24T23:34:30.241Z,10.21
2023-04-24T23:37:01.933Z,10.16
2023-04-24T23:39:34.402Z,10.14
2023-04-24T23:42:07.864Z,10.13
2023-04-24T23:44:39.610Z,10.21
2023-04-24T23:47:11.371Z,10.22
2023-04-24T23:49:43.105Z,10.19
2023-04-24T23:52:14.891Z,10.15
2023-04-24T23:54:47.825Z,10.13
2023-04-24T23:57:19.714Z,10.08
2023-04-24T23:59:52.378Z,10.09
